Relevés horaires Elsenborn (Belgique)


Relevés horaires à Elsenborn - Vendredi 21 Févr. 2020
Heure UTC1 Température [°C] Vent [km/h] Hum. [%] Pres.4 [hPa] Visi. [Km] Nébu. [octa] Préc.5 [mm] Cond.
2m. Res. Ros. Dir.2 Vit. Moy. Raf.3
23:00 1.6 -1.2 -- SSO 9.3 -- 18.5 -- 1027(-1.4/3h) 20 -- -- --
22:00 2.0 -0.2 0.1 SO 7.4 -- 16.7 87 1027.5(-0.8/3h) 20 -- -- --
21:00 1.7 -0.6 -- SO 7.4 -- 16.7 -- 1028(-0.3/3h) 20 -- -- --
20:00 2.2 0 0.2 SO 7.4 -- 16.7 87 1028.5(0.3/3h) 20 -- -- --
19:00 2.4 0.3 0.1 SO 7.4 -- 16.7 85 1028.2(0.1/3h) 20 -- -- --
18:00 3.0 0.4 0.5 SO 9.3 -- 18.5 84 1028(-0.2/3h) 20 -- -- --
17:00 3.2 1.8 0.7 SO 5.6 -- 16.7 84 1027.7(-0.5/3h) 20 -- -- --
16:00 3.7 1.8 0.6 SO 7.4 -- 16.7 80 1027.7(-0.8/3h) 20 -- -- --
15:00 3.5 1.5 0.5 SO 7.4 -- 18.5 81 1028.2(-0.9/3h) 20 -- -- --
14:00 3.9 1.5 0.4 OSO 9.3 -- 18.5 78 1028.2(-0.7/3h) 19 -- -- --
13:00 3.9 1.5 0.6 OSO 9.3 -- 18.5 79 1028.5(0.0/3h) 20 -- -- --
12:00 3.3 0.8 0.7 OSO 9.3 -- 18.5 83 1029.2(0.9/3h) 20 -- -- --
11:00 3.0 0.4 0.6 OSO 9.3 -- 18.5 84 1029.2(1.3/3h) 19 -- -- --
10:00 1.8 -0.4 0.6 OSO 7.4 -- 13.0 92 1029(1.5/3h) 17 -- -- --
09:00 0.4 -2.1 -0.2 OSO 7.4 -- 16.7 96 1029(1.7/3h) 16 -- -- --
08:00 -0.3 -2.9 -0.7 OSO 7.4 -- 16.7 97 1028.5(1.3/3h) 12 -- -- --
07:00 -0.6 -3.2 -1.0 OSO 7.4 -- 13.0 97 1028.2(1.7/3h) 12 -- -- --
06:00 -0.6 -3.2 -1.1 OSO 7.4 -- 22.2 96 1027.4(1.9/3h) 15 -- 8/12h
--
05:00 -0.3 -2.9 -1.0 OSO 7.4 -- 14.8 95 1027(2.5/3h) 20 -- -- --
04:00 -0.1 -2.7 -0.8 OSO 7.4 -- 16.7 95 1026(2.7/3h) 19 -- -- --
03:00 0.2 -2.9 -0.5 O 9.3 -- 22.2 95 1025(2.7/3h) 15 -- -- --
02:00 0.6 -2.4 -- O 9.3 -- 18.5 -- 1024(3.2/3h) 19 -- -- --
01:00 0.8 -2.6 -- O 11.1 -- 22.2 -- 1022.8(4.5/3h) 18 -- -- --
00:00 0.5 -3.4 -- O 13.0 -- 35.2 -- 1022(5.1/3h) 20 -- 8/6h
NA

1 Coordinated Universal Time. Actuellement il est 11:00 locale et 09:00 UTC.

2 Le vent souffle depuis la direction indiquée vers la direction oposée.

3 Les rafales max. sont disponible 40 min après l'heure du relevé.

4 Pour les stations d'altitude (plus de 600m) le géopotentiel du niveau le plus proche de la pression obligatoire est indiqué.

5 Les stations disposant d'un diffuseur peuvent indiquer "trace". Cela signifie que des précipitations ont touchés le sol mais que la quantité est inférieure à 0.1 mm.

Récapitulatif de la journée
Température [°C] Vent [km/h] Ensoleillement4 [h] Precipitations totale5 [mm] Pression [Hpa]
Min1 Max.2 Moy.3 Max. Min Max.
-0.6 4.1 0 35.2 0 h 0 min 0 1022.0 1029.2

1 Température minimale relevée entre 18:00 UTC la veille et 18:00 UTC le jour donné.

2 Température maximale relevée entre 06:00 UTC le jour donné et 06:00 UTC le lendemain.

3 Vent moyen de la journée basé sur les relevés horaires.

4 Ensoleillement en heures relevé entre 06:00 UTC la veille et 06:00 UTC le jour donné.

5 Précipitations totales tombées entre 06:00 UTC la jour donné et 06:00 UTC le lendemain.

Graphiques horaires